Time;durP1;ratioP1;P1;durP2;ratioP2;P2;SDS_P1;SDS_P2;PMS_P1;PMS_P2;Temp;Humidity;BMP_temperature;BMP_pressure;BME280_temperature;BME280_humidity;BME280_pressure;Samples;Min_cycle;Max_cycle;Signal;HPM_P1;HPM_P2
2022/11/19 00:01:27;;;;;;;6.30;2.40;;;16.60;99.90;;;;;;5030824;28;20212;-75
2022/11/19 00:03:54;;;;;;;5.77;2.57;;;16.60;99.90;;;;;;5028186;28;20196;-74
2022/11/19 00:06:24;;;;;;;6.03;2.30;;;16.60;99.90;;;;;;5032463;28;20191;-75
2022/11/19 00:08:52;;;;;;;9.27;2.60;;;16.60;99.90;;;;;;5025010;28;20311;-74
2022/11/19 00:14:15;;;;;;;6.53;2.20;;;16.70;99.90;;;;;;5035898;28;20191;-75
2022/11/19 00:16:43;;;;;;;5.60;2.20;;;16.70;99.90;;;;;;5031295;28;20184;-74
2022/11/19 00:19:11;;;;;;;4.40;2.30;;;16.70;99.90;;;;;;5027021;28;20627;-74
2022/11/19 00:21:37;;;;;;;6.33;2.40;;;16.70;99.90;;;;;;5021235;28;20216;-74
2022/11/19 00:24:04;;;;;;;9.10;2.70;;;16.70;99.90;;;;;;5032185;28;20196;-74
2022/11/19 00:26:30;;;;;;;5.67;2.30;;;16.70;99.90;;;;;;5037787;28;20624;-74
2022/11/19 00:28:57;;;;;;;6.73;1.97;;;16.70;99.90;;;;;;5027887;28;20188;-75
2022/11/19 00:31:23;;;;;;;12.40;2.37;;;16.80;99.90;;;;;;5028937;28;20196;-74
2022/11/19 00:33:50;;;;;;;7.87;2.20;;;16.80;99.90;;;;;;5032081;28;20196;-74
2022/11/19 00:36:17;;;;;;;5.20;2.27;;;16.80;99.90;;;;;;5036667;28;20187;-75
2022/11/19 00:38:44;;;;;;;7.63;2.80;;;16.80;99.90;;;;;;5020803;28;20258;-74
2022/11/19 00:41:10;;;;;;;7.00;2.20;;;16.80;99.90;;;;;;5030129;28;20250;-74
2022/11/19 00:43:46;;;;;;;5.77;1.90;;;16.80;99.90;;;;;;5039013;28;20194;-74
2022/11/19 00:46:22;;;;;;;7.70;2.13;;;16.80;99.90;;;;;;5018424;28;20241;-74
2022/11/19 00:48:52;;;;;;;3.13;1.80;;;16.80;99.90;;;;;;5023687;28;20188;-74
2022/11/19 00:51:21;;;;;;;7.70;2.37;;;16.90;99.90;;;;;;5027543;28;20192;-74
2022/11/19 00:53:47;;;;;;;4.63;2.00;;;16.90;99.90;;;;;;5019499;28;20187;-75
2022/11/19 00:56:17;;;;;;;3.67;2.03;;;16.90;99.90;;;;;;5027471;28;20283;-74
2022/11/19 00:58:44;;;;;;;5.27;2.53;;;16.90;99.90;;;;;;5026532;28;20526;-75
2022/11/19 01:01:13;;;;;;;8.07;2.20;;;16.90;99.90;;;;;;5021331;28;20323;-75
2022/11/19 01:03:42;;;;;;;9.40;2.47;;;16.90;99.90;;;;;;5027638;28;20262;-75
2022/11/19 01:06:09;;;;;;;7.27;2.13;;;16.90;99.90;;;;;;5023844;28;20770;-75
2022/11/19 01:08:36;;;;;;;5.93;2.00;;;16.90;99.90;;;;;;5035549;28;20584;-75
2022/11/19 01:11:15;;;;;;;4.07;2.10;;;16.90;99.90;;;;;;5031852;28;20194;-75
2022/11/19 01:13:42;;;;;;;4.20;1.90;;;17.00;99.90;;;;;;5036659;28;20202;-75
2022/11/19 01:16:15;;;;;;;4.73;2.37;;;17.00;99.90;;;;;;5014669;28;20255;-75
2022/11/19 01:18:46;;;;;;;9.83;2.40;;;17.00;99.90;;;;;;5034350;28;20696;-75
2022/11/19 01:21:14;;;;;;;7.57;2.30;;;16.90;99.90;;;;;;5035780;28;20184;-75
2022/11/19 01:23:42;;;;;;;7.00;2.40;;;16.90;99.90;;;;;;5032837;28;20207;-75
2022/11/19 01:26:11;;;;;;;5.40;2.03;;;16.90;99.90;;;;;;5031121;28;20196;-75
2022/11/19 01:28:38;;;;;;;6.27;2.07;;;16.90;99.90;;;;;;5029522;28;20262;-75
2022/11/19 01:31:11;;;;;;;5.00;2.23;;;16.90;99.90;;;;;;5035792;28;20188;-75
2022/11/19 01:33:38;;;;;;;7.30;2.07;;;16.90;99.90;;;;;;5026276;28;20200;-75
2022/11/19 01:36:11;;;;;;;4.50;1.93;;;16.90;99.90;;;;;;5029284;28;20200;-75
2022/11/19 01:38:37;;;;;;;8.37;2.27;;;16.90;99.90;;;;;;5007092;28;20737;-75
2022/11/19 01:41:04;;;;;;;6.60;2.00;;;16.90;99.90;;;;;;5030362;28;20241;-75
2022/11/19 01:43:50;;;;;;;6.40;2.13;;;16.90;99.90;;;;;;5039185;28;20199;-75
2022/11/19 01:46:24;;;;;;;8.00;2.30;;;17.00;99.90;;;;;;5022018;28;20294;-75
2022/11/19 01:49:17;;;;;;;8.67;2.50;;;17.00;99.90;;;;;;5028969;28;20188;-75
2022/11/19 01:51:57;;;;;;;7.73;2.60;;;17.00;99.90;;;;;;5033825;28;20179;-75
2022/11/19 01:54:48;;;;;;;8.83;2.43;;;17.00;99.90;;;;;;5041090;28;20177;-75
2022/11/19 01:57:17;;;;;;;3.77;2.10;;;17.00;99.90;;;;;;5054797;28;20674;-75
2022/11/19 01:59:49;;;;;;;6.70;2.27;;;17.00;99.90;;;;;;5033864;28;20193;-75
2022/11/19 02:02:18;;;;;;;5.33;2.33;;;17.00;99.90;;;;;;5028046;28;20561;-75
2022/11/19 02:04:46;;;;;;;4.87;2.60;;;17.00;99.90;;;;;;5035899;28;20238;-77
2022/11/19 02:07:13;;;;;;;5.07;1.90;;;17.00;99.90;;;;;;5030281;28;20327;-77
2022/11/19 02:09:40;;;;;;;8.80;2.40;;;16.90;99.90;;;;;;5030154;28;20187;-77
2022/11/19 02:12:38;;;;;;;5.33;2.00;;;16.90;99.90;;;;;;5038861;28;20191;-77
2022/11/19 02:15:32;;;;;;;6.50;2.03;;;16.90;99.90;;;;;;5022342;28;20253;-77
2022/11/19 02:18:28;;;;;;;4.83;1.80;;;16.90;99.90;;;;;;5038304;28;20252;-77
2022/11/19 02:21:01;;;;;;;5.07;1.70;;;16.90;99.90;;;;;;5042115;28;20217;-77
2022/11/19 02:23:36;;;;;;;4.40;1.90;;;16.80;99.90;;;;;;5042933;28;20660;-77
2022/11/19 02:26:43;;;;;;;4.90;2.07;;;16.70;99.90;;;;;;5029271;28;20191;-77
2022/11/19 02:29:28;;;;;;;8.00;2.40;;;16.70;99.90;;;;;;5023551;28;20196;-77
2022/11/19 02:32:14;;;;;;;10.27;2.30;;;16.70;99.90;;;;;;5035805;28;20200;-77
2022/11/19 02:34:56;;;;;;;7.70;2.50;;;16.70;99.90;;;;;;5034286;28;20212;-77
2022/11/19 02:37:42;;;;;;;4.70;1.97;;;16.80;99.90;;;;;;5033632;28;20194;-77
2022/11/19 02:40:24;;;;;;;5.63;2.23;;;16.90;99.90;;;;;;5032206;28;20192;-77
2022/11/19 02:43:17;;;;;;;4.70;2.20;;;16.90;99.90;;;;;;5021736;28;20192;-77
2022/11/19 02:46:00;;;;;;;7.07;2.47;;;16.90;99.90;;;;;;5030331;28;20192;-78
2022/11/19 02:48:34;;;;;;;6.93;2.30;;;16.80;99.90;;;;;;5028553;28;20716;-77
2022/11/19 02:51:03;;;;;;;4.33;2.30;;;16.80;99.90;;;;;;5034376;28;20195;-77
2022/11/19 02:53:32;;;;;;;7.77;2.47;;;16.80;99.90;;;;;;5030842;28;20203;-77
2022/11/19 02:56:13;;;;;;;4.40;1.90;;;16.70;99.90;;;;;;5026352;28;20184;-77
2022/11/19 03:04:31;;;;;;;6.60;2.10;;;16.80;99.90;;;;;;5031297;28;20200;-77
2022/11/19 03:07:16;;;;;;;3.77;2.50;;;16.80;99.90;;;;;;5032885;28;20549;-77
2022/11/19 03:09:56;;;;;;;6.07;2.17;;;16.80;99.90;;;;;;5043045;28;20194;-77
2022/11/19 03:19:18;;;;;;;4.47;2.37;;;16.80;99.90;;;;;;4988721;28;20193;-77
2022/11/19 03:22:20;;;;;;;4.20;2.20;;;16.60;99.90;;;;;;5027844;28;20199;-76
2022/11/19 03:25:06;;;;;;;6.07;2.50;;;16.60;99.90;;;;;;5047988;28;20195;-77
2022/11/19 03:27:41;;;;;;;6.33;2.47;;;16.60;99.90;;;;;;5025080;28;20250;-77
2022/11/19 03:30:10;;;;;;;5.40;2.60;;;16.60;99.90;;;;;;5023441;28;20711;-76
2022/11/19 03:33:01;;;;;;;6.00;2.33;;;16.60;99.90;;;;;;5029724;28;20191;-77
2022/11/19 03:35:47;;;;;;;5.27;2.30;;;16.60;99.90;;;;;;5026004;28;20208;-76
2022/11/19 03:38:30;;;;;;;6.37;2.43;;;16.60;99.90;;;;;;5029751;28;20194;-77
2022/11/19 03:40:59;;;;;;;5.37;2.70;;;16.70;99.90;;;;;;5048351;28;20192;-77
2022/11/19 03:43:33;;;;;;;6.87;2.63;;;16.70;99.90;;;;;;5050222;28;20185;-77
2022/11/19 03:46:03;;;;;;;4.03;2.07;;;16.70;99.90;;;;;;5024735;28;20235;-77
2022/11/19 03:48:31;;;;;;;3.93;2.37;;;16.70;99.90;;;;;;5007039;28;20589;-77
2022/11/19 03:51:11;;;;;;;8.37;2.43;;;16.70;99.90;;;;;;5027315;28;20184;-77
2022/11/19 03:53:38;;;;;;;5.57;2.53;;;16.70;99.90;;;;;;5035823;28;20181;-77
2022/11/19 03:56:10;;;;;;;7.13;2.60;;;16.70;99.90;;;;;;5031835;28;20260;-77
2022/11/19 03:58:43;;;;;;;11.57;2.70;;;16.70;99.90;;;;;;5035655;28;20191;-76
2022/11/19 04:01:10;;;;;;;6.87;2.30;;;16.70;99.90;;;;;;5029959;28;20200;-77
2022/11/19 04:03:37;;;;;;;5.03;2.40;;;16.70;99.90;;;;;;5027728;28;20226;-77
2022/11/19 04:06:06;;;;;;;8.23;2.43;;;16.70;99.90;;;;;;5024213;28;20553;-77
2022/11/19 04:08:32;;;;;;;6.23;2.27;;;16.60;99.90;;;;;;5012657;28;20282;-76
2022/11/19 04:10:58;;;;;;;7.63;2.50;;;16.70;99.90;;;;;;5033123;28;20277;-77
2022/11/19 04:13:25;;;;;;;5.37;2.50;;;16.70;99.90;;;;;;5033741;28;20196;-77
2022/11/19 04:15:52;;;;;;;7.47;2.63;;;16.80;99.90;;;;;;5036951;28;20192;-78
2022/11/19 04:18:18;;;;;;;5.63;2.37;;;16.80;99.90;;;;;;5027994;28;20542;-77
2022/11/19 04:20:45;;;;;;;5.13;2.20;;;16.80;99.90;;;;;;5034502;28;20195;-77
2022/11/19 04:23:11;;;;;;;6.70;2.57;;;16.80;99.90;;;;;;5043437;28;20206;-76
2022/11/19 04:25:39;;;;;;;10.17;2.73;;;16.80;99.90;;;;;;5030108;28;20534;-77
2022/11/19 04:28:05;;;;;;;5.60;2.20;;;16.80;99.90;;;;;;5026855;28;20208;-77
2022/11/19 04:30:31;;;;;;;4.87;2.30;;;16.80;99.90;;;;;;5024092;28;20810;-77
2022/11/19 04:32:57;;;;;;;5.63;2.77;;;16.80;99.90;;;;;;5035550;28;20225;-77
2022/11/19 04:35:23;;;;;;;11.00;2.90;;;16.80;99.90;;;;;;5038860;28;20219;-77
2022/11/19 04:37:50;;;;;;;4.80;2.83;;;16.80;99.90;;;;;;5034779;28;20240;-77
2022/11/19 04:40:16;;;;;;;8.67;3.03;;;16.90;99.90;;;;;;5042110;28;20187;-77
2022/11/19 04:42:43;;;;;;;9.77;2.70;;;16.90;99.90;;;;;;5038273;28;20199;-77
2022/11/19 04:45:10;;;;;;;5.47;2.97;;;16.90;99.90;;;;;;5035224;28;20820;-77
2022/11/19 04:47:37;;;;;;;5.37;3.07;;;17.00;99.90;;;;;;5023471;28;20208;-76
2022/11/19 04:50:03;;;;;;;10.73;2.80;;;17.10;99.90;;;;;;5025162;28;20183;-77
2022/11/19 04:52:31;;;;;;;6.93;3.10;;;17.10;99.90;;;;;;5030202;28;20205;-77
2022/11/19 04:54:57;;;;;;;4.30;2.80;;;17.10;99.90;;;;;;5029363;28;20195;-77
2022/11/19 04:57:24;;;;;;;10.90;3.00;;;17.20;99.90;;;;;;5033900;28;20183;-77
2022/11/19 04:59:50;;;;;;;6.43;3.07;;;17.10;99.90;;;;;;5026469;28;20278;-77
2022/11/19 05:02:17;;;;;;;7.13;2.80;;;17.20;99.90;;;;;;5031519;28;20195;-77
2022/11/19 05:04:43;;;;;;;7.30;3.07;;;17.20;99.90;;;;;;5028258;28;20196;-77
2022/11/19 05:07:11;;;;;;;6.37;2.70;;;17.30;99.90;;;;;;5026843;28;20204;-77
2022/11/19 05:09:37;;;;;;;6.53;2.60;;;17.30;99.90;;;;;;5027232;28;20279;-77
2022/11/19 05:12:04;;;;;;;4.90;2.53;;;17.30;99.90;;;;;;5029582;28;20675;-76
2022/11/19 05:14:31;;;;;;;9.23;3.00;;;17.30;99.90;;;;;;5020626;28;20223;-77
2022/11/19 05:16:57;;;;;;;6.87;2.80;;;17.30;99.90;;;;;;5025845;28;20538;-76
2022/11/19 05:19:25;;;;;;;6.83;2.60;;;17.30;99.90;;;;;;5031133;28;20194;-77
2022/11/19 05:21:52;;;;;;;9.10;2.57;;;17.30;99.90;;;;;;5021850;28;20187;-77
2022/11/19 05:24:19;;;;;;;9.30;2.80;;;17.30;99.90;;;;;;5031099;28;20191;-77
2022/11/19 05:26:46;;;;;;;5.87;2.60;;;17.40;99.90;;;;;;5038630;28;20183;-77
2022/11/19 05:29:12;;;;;;;5.30;2.40;;;17.40;99.90;;;;;;5011598;28;20604;-77
2022/11/19 05:31:38;;;;;;;7.43;2.90;;;17.40;99.90;;;;;;5031969;28;20559;-77
2022/11/19 05:34:05;;;;;;;6.37;2.90;;;17.40;99.90;;;;;;5031040;28;20198;-77
2022/11/19 05:36:31;;;;;;;6.83;2.83;;;17.50;99.90;;;;;;5031337;28;20196;-77
2022/11/19 05:38:58;;;;;;;6.23;2.77;;;17.50;99.90;;;;;;5029601;28;20552;-76
2022/11/19 05:41:25;;;;;;;12.60;2.80;;;17.50;99.90;;;;;;5037929;28;20167;-77
2022/11/19 05:43:51;;;;;;;7.53;2.90;;;17.60;99.90;;;;;;5057100;28;20667;-77
2022/11/19 05:46:18;;;;;;;6.37;2.73;;;17.60;99.90;;;;;;5013127;28;20192;-77
2022/11/19 05:48:45;;;;;;;3.93;2.70;;;17.70;99.90;;;;;;5062013;28;20262;-77
2022/11/19 05:51:17;;;;;;;7.53;3.07;;;17.70;99.90;;;;;;5021248;28;20182;-77
2022/11/19 05:53:43;;;;;;;7.67;3.00;;;17.80;99.90;;;;;;5037455;28;20187;-77
2022/11/19 05:56:10;;;;;;;6.37;2.67;;;17.80;99.90;;;;;;5028738;28;20207;-77
2022/11/19 05:58:36;;;;;;;7.70;2.60;;;17.80;99.90;;;;;;5029195;28;20200;-77
2022/11/19 06:01:05;;;;;;;3.73;2.70;;;17.80;99.90;;;;;;5031577;28;20661;-77
2022/11/19 06:03:33;;;;;;;8.07;2.93;;;17.90;99.90;;;;;;5033502;28;20192;-77
2022/11/19 06:05:59;;;;;;;4.43;2.70;;;17.90;99.90;;;;;;5050707;28;20183;-77
2022/11/19 06:08:25;;;;;;;6.43;2.60;;;17.80;99.90;;;;;;5049666;28;20262;-77
2022/11/19 06:10:51;;;;;;;6.03;2.90;;;17.90;99.90;;;;;;5042838;28;20549;-77
2022/11/19 06:13:18;;;;;;;12.50;2.77;;;17.80;99.90;;;;;;5038398;28;20210;-77
2022/11/19 06:15:44;;;;;;;8.37;2.80;;;17.90;99.90;;;;;;5031548;28;20223;-77
2022/11/19 06:18:10;;;;;;;6.37;2.80;;;17.90;99.90;;;;;;5035627;28;20196;-77
2022/11/19 06:20:36;;;;;;;6.07;2.67;;;18.00;99.90;;;;;;5029152;28;20225;-77
2022/11/19 06:23:03;;;;;;;5.77;2.60;;;18.10;99.90;;;;;;5032017;28;20563;-77
2022/11/19 06:25:29;;;;;;;4.27;2.33;;;18.10;99.90;;;;;;5037584;28;20275;-77
2022/11/19 06:27:55;;;;;;;6.70;2.70;;;18.10;99.90;;;;;;5033723;28;20291;-77
2022/11/19 06:30:21;;;;;;;3.47;2.70;;;18.10;99.90;;;;;;5045242;28;20192;-77
2022/11/19 06:32:48;;;;;;;6.77;2.67;;;18.10;99.90;;;;;;5029531;28;20279;-77
2022/11/19 06:35:14;;;;;;;4.23;2.47;;;18.20;99.90;;;;;;5031420;28;20769;-77
2022/11/19 06:37:43;;;;;;;6.23;3.00;;;18.30;99.90;;;;;;5032413;28;20632;-77
2022/11/19 06:40:11;;;;;;;6.83;2.77;;;18.30;99.90;;;;;;5039608;28;20196;-77
2022/11/19 06:42:37;;;;;;;7.43;2.80;;;18.30;99.90;;;;;;5025368;28;20188;-77
2022/11/19 06:45:13;;;;;;;6.87;2.73;;;18.30;99.90;;;;;;5030225;28;20219;-77
2022/11/19 06:47:41;;;;;;;7.40;2.80;;;18.30;99.90;;;;;;5030812;28;20232;-77
2022/11/19 06:50:10;;;;;;;7.20;3.00;;;18.40;99.90;;;;;;5043944;28;20188;-77
2022/11/19 06:52:36;;;;;;;3.20;2.40;;;18.30;99.90;;;;;;5026974;28;20185;-77
2022/11/19 06:55:03;;;;;;;3.30;2.47;;;18.20;99.90;;;;;;5029252;28;20515;-77
2022/11/19 06:57:33;;;;;;;4.83;2.90;;;18.20;99.90;;;;;;5026516;28;20192;-77
2022/11/19 06:59:59;;;;;;;5.40;2.53;;;18.20;99.90;;;;;;5032236;28;20227;-77
2022/11/19 07:02:26;;;;;;;7.13;2.80;;;18.30;99.90;;;;;;5035562;28;20202;-77
2022/11/19 07:04:52;;;;;;;7.63;2.70;;;18.40;99.90;;;;;;5016048;28;20192;-76
2022/11/19 07:07:18;;;;;;;9.60;3.27;;;18.50;99.90;;;;;;5036930;28;20639;-77
2022/11/19 07:09:44;;;;;;;7.70;3.10;;;18.50;99.90;;;;;;5037338;28;20187;-77
2022/11/19 07:12:12;;;;;;;6.27;2.67;;;18.40;99.90;;;;;;5025863;28;20211;-77
2022/11/19 07:14:39;;;;;;;6.17;2.70;;;18.40;99.90;;;;;;5027736;28;20522;-77
2022/11/19 07:17:05;;;;;;;5.00;2.87;;;18.40;99.90;;;;;;5027187;28;20851;-77
2022/11/19 07:19:32;;;;;;;5.30;2.73;;;18.40;99.90;;;;;;5029537;28;20200;-77
2022/11/19 07:21:59;;;;;;;6.43;3.07;;;18.50;99.90;;;;;;5013293;28;20193;-77
2022/11/19 07:24:25;;;;;;;4.80;2.70;;;18.50;99.90;;;;;;5032852;28;20192;-77
2022/11/19 07:26:52;;;;;;;6.37;2.63;;;18.60;99.90;;;;;;5038843;28;20195;-77
2022/11/19 07:29:18;;;;;;;6.90;2.40;;;18.70;99.90;;;;;;5035274;28;20215;-77
2022/11/19 07:31:49;;;;;;;12.63;2.50;;;18.60;99.90;;;;;;5028390;28;20676;-78
2022/11/19 07:34:16;;;;;;;5.27;2.80;;;18.70;99.90;;;;;;5043708;28;20191;-77
2022/11/19 07:36:43;;;;;;;7.27;2.87;;;18.70;99.90;;;;;;5048903;28;20190;-77
2022/11/19 07:39:11;;;;;;;4.90;2.50;;;18.80;99.90;;;;;;5026912;28;20537;-77
2022/11/19 07:44:23;;;;;;;4.07;2.50;;;18.90;99.90;;;;;;5027457;28;20214;-77
2022/11/19 07:46:49;;;;;;;4.00;2.60;;;18.90;99.90;;;;;;5040003;28;20204;-77
2022/11/19 07:49:17;;;;;;;5.27;2.90;;;18.90;99.90;;;;;;5028011;28;20203;-77
2022/11/19 07:51:43;;;;;;;9.00;2.60;;;18.80;99.90;;;;;;5023257;28;20188;-77
2022/11/19 07:54:13;;;;;;;3.97;2.73;;;18.80;99.90;;;;;;5028829;28;20653;-76
2022/11/19 07:56:39;;;;;;;5.63;2.70;;;18.80;99.90;;;;;;5023599;28;20187;-77
2022/11/19 07:59:06;;;;;;;4.90;2.70;;;18.90;99.90;;;;;;5026386;28;20649;-77
2022/11/19 08:01:32;;;;;;;5.20;2.47;;;18.90;99.90;;;;;;5034714;28;20560;-77
2022/11/19 08:03:59;;;;;;;8.43;3.30;;;19.00;99.90;;;;;;5029742;28;20195;-77
2022/11/19 08:06:28;;;;;;;4.60;2.57;;;19.00;99.90;;;;;;5032573;28;20183;-77
2022/11/19 08:08:56;;;;;;;4.90;2.90;;;19.20;99.90;;;;;;5031551;28;20212;-77
2022/11/19 08:11:25;;;;;;;15.90;2.60;;;19.10;99.90;;;;;;5018134;28;20188;-78
2022/11/19 08:13:52;;;;;;;4.40;2.60;;;19.00;99.90;;;;;;5036913;28;20184;-77
2022/11/19 08:19:09;;;;;;;5.70;2.67;;;19.10;99.90;;;;;;5024462;28;20192;-77
2022/11/19 08:21:40;;;;;;;4.07;2.80;;;19.20;99.90;;;;;;5021449;28;20188;-77
2022/11/19 08:24:08;;;;;;;5.37;2.93;;;19.30;99.90;;;;;;5023765;28;20628;-76
2022/11/19 08:26:35;;;;;;;7.43;3.03;;;19.20;99.90;;;;;;5023485;28;20268;-77
2022/11/19 08:29:02;;;;;;;5.33;2.43;;;19.20;99.90;;;;;;5018370;28;20196;-77
2022/11/19 08:31:29;;;;;;;5.73;2.80;;;19.20;99.90;;;;;;5050084;28;20184;-77
2022/11/19 08:33:55;;;;;;;3.80;2.40;;;19.20;99.90;;;;;;5021188;28;20228;-77
2022/11/19 08:36:22;;;;;;;7.00;2.70;;;19.20;99.90;;;;;;5020183;28;20242;-77
2022/11/19 08:38:48;;;;;;;8.93;2.97;;;19.20;99.90;;;;;;5017737;28;20193;-77
2022/11/19 08:44:01;;;;;;;6.17;3.07;;;19.30;99.90;;;;;;5025992;28;20656;-77
2022/11/19 08:46:28;;;;;;;7.13;2.63;;;19.30;99.90;;;;;;5017399;28;20722;-76
2022/11/19 08:48:54;;;;;;;6.27;2.33;;;19.30;99.90;;;;;;5017681;28;20302;-77
2022/11/19 08:51:24;;;;;;;4.93;2.70;;;19.50;99.90;;;;;;5002531;28;20195;-77
2022/11/19 08:53:53;;;;;;;2.70;2.20;;;19.50;99.90;;;;;;5019346;28;20269;-77
2022/11/19 08:56:21;;;;;;;4.80;2.43;;;19.50;99.90;;;;;;5021464;28;20192;-77
2022/11/19 08:58:48;;;;;;;6.73;2.70;;;19.50;99.90;;;;;;5024662;28;20200;-77
2022/11/19 09:01:17;;;;;;;7.87;2.70;;;19.50;99.90;;;;;;5016786;28;20199;-77
2022/11/19 09:03:43;;;;;;;4.60;2.50;;;19.50;99.90;;;;;;5034732;28;20197;-77
2022/11/19 09:06:11;;;;;;;4.57;2.90;;;19.50;99.90;;;;;;5015263;28;20549;-77
2022/11/19 09:08:40;;;;;;;3.53;2.50;;;19.50;99.90;;;;;;5018403;28;20236;-77
2022/11/19 09:11:09;;;;;;;3.50;2.40;;;19.80;99.90;;;;;;5023759;28;20521;-77
2022/11/19 09:13:36;;;;;;;7.00;2.40;;;19.80;99.90;;;;;;5014594;28;21408;-77
2022/11/19 09:16:06;;;;;;;4.03;2.30;;;19.80;99.90;;;;;;5020126;28;20191;-77
2022/11/19 09:18:34;;;;;;;6.40;2.50;;;19.80;99.90;;;;;;4999644;28;20210;-77
2022/11/19 09:21:02;;;;;;;5.27;2.60;;;19.80;99.90;;;;;;5025060;28;20572;-76
2022/11/19 09:23:29;;;;;;;3.90;2.43;;;19.80;99.90;;;;;;5013383;28;20191;-77
2022/11/19 09:26:05;;;;;;;7.97;2.50;;;19.80;99.90;;;;;;5027543;28;20805;-77
2022/11/19 09:28:32;;;;;;;5.13;2.30;;;19.80;99.90;;;;;;5023707;28;20224;-78
2022/11/19 09:31:06;;;;;;;7.87;2.50;;;19.70;99.90;;;;;;5021903;28;20207;-77
2022/11/19 09:33:37;;;;;;;7.97;2.30;;;19.80;99.90;;;;;;5015577;28;20238;-77
2022/11/19 09:36:04;;;;;;;3.92;2.33;;;19.90;99.90;;;;;;5022772;28;20191;-77
2022/11/19 09:38:33;;;;;;;4.93;2.20;;;19.90;99.90;;;;;;5021460;28;20204;-77
2022/11/19 09:41:44;;;;;;;9.13;3.10;;;19.90;99.90;;;;;;5020305;28;20676;-78
2022/11/19 09:44:45;;;;;;;4.97;2.40;;;19.90;99.90;;;;;;4998320;28;20192;-77
2022/11/19 09:47:47;;;;;;;4.37;2.50;;;20.00;99.90;;;;;;5019602;28;20211;-78
2022/11/19 09:50:23;;;;;;;7.00;2.67;;;20.10;99.90;;;;;;5058028;28;20187;-77
2022/11/19 09:53:11;;;;;;;8.17;2.60;;;20.10;99.90;;;;;;5021439;28;20256;-78
2022/11/19 09:55:44;;;;;;;5.37;2.40;;;20.10;99.90;;;;;;5020293;28;20180;-77
2022/11/19 09:58:33;;;;;;;4.87;2.20;;;20.00;99.90;;;;;;5016528;28;20200;-78
2022/11/19 10:01:05;;;;;;;4.17;2.50;;;20.00;99.90;;;;;;5019816;28;20195;-78
2022/11/19 10:03:31;;;;;;;7.83;2.33;;;20.00;99.90;;;;;;5032491;28;20222;-77
2022/11/19 10:06:09;;;;;;;10.18;2.50;;;20.10;99.90;;;;;;5020010;28;20197;-78
2022/11/19 10:08:49;;;;;;;5.33;2.60;;;20.20;99.90;;;;;;5036478;28;20281;-77
2022/11/19 10:11:57;;;;;;;5.53;2.67;;;20.30;99.90;;;;;;5019347;28;20191;-78
2022/11/19 10:14:58;;;;;;;7.33;2.63;;;20.40;99.90;;;;;;5009130;28;20201;-78
2022/11/19 10:17:44;;;;;;;4.38;2.25;;;20.60;99.90;;;;;;5061012;28;20203;-78
2022/11/19 10:20:25;;;;;;;6.30;2.43;;;20.60;99.90;;;;;;5024420;28;20196;-77
2022/11/19 10:23:13;;;;;;;7.15;2.33;;;20.80;99.90;;;;;;5040175;28;20724;-78
2022/11/19 10:25:49;;;;;;;7.85;2.67;;;20.80;99.90;;;;;;5030715;28;20189;-78
2022/11/19 10:28:28;;;;;;;8.70;2.63;;;20.80;99.90;;;;;;5034622;28;20224;-78
2022/11/19 10:31:25;;;;;;;5.75;2.70;;;20.60;99.90;;;;;;5043301;28;20179;-78
2022/11/19 10:34:35;;;;;;;5.50;2.67;;;20.50;99.90;;;;;;5017068;28;20657;-77
2022/11/19 10:37:15;;;;;;;5.93;2.45;;;20.60;99.90;;;;;;5037833;28;20700;-78
2022/11/19 10:40:14;;;;;;;5.13;2.60;;;20.90;99.90;;;;;;5032101;28;20247;-78
2022/11/19 10:42:58;;;;;;;10.63;2.53;;;21.10;99.90;;;;;;5051545;28;20188;-77
2022/11/19 10:45:28;;;;;;;4.43;2.60;;;21.20;99.90;;;;;;4997212;28;21257;-77
2022/11/19 10:48:23;;;;;;;4.63;2.50;;;21.20;99.90;;;;;;5020205;28;20246;-77
2022/11/19 10:50:51;;;;;;;5.63;2.67;;;21.40;99.90;;;;;;5023737;28;20198;-77
2022/11/19 10:53:43;;;;;;;9.90;2.25;;;21.60;99.90;;;;;;5024013;28;20915;-77
2022/11/19 10:56:20;;;;;;;9.02;2.60;;;21.60;99.90;;;;;;5025925;28;20188;-77
2022/11/19 10:59:17;;;;;;;6.43;2.67;;;21.80;99.90;;;;;;5049155;28;20533;-77
2022/11/19 11:01:49;;;;;;;6.55;2.58;;;21.80;99.90;;;;;;5024232;28;20489;-77
2022/11/19 11:04:24;;;;;;;7.60;2.42;;;21.90;99.90;;;;;;5024168;28;21017;-77
2022/11/19 11:06:57;;;;;;;4.20;2.20;;;21.90;99.90;;;;;;5023260;28;20482;-77
2022/11/19 11:09:42;;;;;;;4.35;2.20;;;21.70;99.90;;;;;;5020142;28;20418;-77
2022/11/19 11:15:25;;;;;;;3.55;1.98;;;21.40;99.90;;;;;;5017729;28;20176;-77
2022/11/19 11:18:09;;;;;;;6.82;2.25;;;21.40;99.90;;;;;;5024481;28;20204;-77
2022/11/19 11:20:39;;;;;;;11.93;2.90;;;21.40;99.90;;;;;;5029957;28;20215;-77
2022/11/19 11:23:18;;;;;;;5.32;2.30;;;21.50;99.90;;;;;;5025677;28;20218;-76
2022/11/19 11:26:12;;;;;;;4.28;2.25;;;21.50;99.90;;;;;;5060451;28;20187;-76
2022/11/19 11:29:26;;;;;;;4.07;2.05;;;21.40;99.90;;;;;;5025157;28;20219;-76
2022/11/19 11:31:52;;;;;;;6.80;2.08;;;21.40;99.90;;;;;;5012269;28;20200;-76
2022/11/19 11:34:25;;;;;;;7.60;2.47;;;21.50;99.90;;;;;;5026497;28;20189;-76
2022/11/19 11:36:53;;;;;;;5.53;2.58;;;21.50;99.90;;;;;;5007581;28;20188;-76
2022/11/19 11:39:39;;;;;;;5.50;2.05;;;21.50;99.90;;;;;;5024670;28;20194;-76
2022/11/19 11:42:10;;;;;;;5.35;2.42;;;21.50;99.90;;;;;;5030561;28;20189;-76
2022/11/19 11:44:49;;;;;;;7.93;2.33;;;21.30;99.90;;;;;;5016340;28;20200;-76
2022/11/19 11:47:17;;;;;;;4.05;2.20;;;21.20;99.90;;;;;;5011441;28;20745;-76
2022/11/19 11:49:50;;;;;;;4.03;2.35;;;21.10;99.90;;;;;;5023366;28;20195;-76
2022/11/19 11:52:21;;;;;;;6.10;2.55;;;21.20;99.90;;;;;;5015167;28;20215;-76
2022/11/19 11:55:12;;;;;;;4.55;2.00;;;21.20;99.90;;;;;;5022016;28;20188;-76
2022/11/19 11:58:03;;;;;;;5.63;2.10;;;21.20;99.90;;;;;;5019999;28;20295;-76
2022/11/19 12:00:36;;;;;;;11.75;2.70;;;21.20;99.90;;;;;;5020989;28;20192;-76
2022/11/19 12:03:17;;;;;;;3.97;2.22;;;21.30;99.90;;;;;;5049529;28;20188;-78
2022/11/19 12:06:14;;;;;;;8.75;2.60;;;21.30;99.90;;;;;;5021976;28;20769;-76
2022/11/19 12:09:08;;;;;;;4.28;2.17;;;21.20;99.90;;;;;;5019850;28;20736;-76
2022/11/19 12:11:53;;;;;;;7.83;2.60;;;21.20;99.90;;;;;;5023786;28;20715;-76
2022/11/19 12:14:57;;;;;;;6.63;2.63;;;21.20;99.90;;;;;;5029228;28;20711;-79
2022/11/19 12:17:50;;;;;;;7.13;2.60;;;21.20;99.90;;;;;;5020461;28;20333;-78
2022/11/19 12:20:35;;;;;;;4.93;2.00;;;21.10;99.90;;;;;;5025272;28;20668;-79
2022/11/19 12:23:44;;;;;;;3.45;2.30;;;21.10;99.90;;;;;;5028360;28;20195;-78
2022/11/19 12:26:37;;;;;;;3.42;2.08;;;21.10;99.90;;;;;;5037578;28;20681;-79
2022/11/19 12:29:25;;;;;;;4.18;1.80;;;21.00;99.90;;;;;;5024472;28;20693;-79
2022/11/19 12:32:00;;;;;;;5.53;2.42;;;20.90;99.90;;;;;;5029100;28;20206;-78
2022/11/19 12:34:34;;;;;;;7.47;2.25;;;20.90;99.90;;;;;;5016840;28;20261;-79
2022/11/19 12:37:24;;;;;;;5.63;2.57;;;20.80;99.90;;;;;;5035752;28;20318;-78
2022/11/19 12:40:16;;;;;;;5.20;2.40;;;20.80;99.90;;;;;;5026227;28;20191;-79
2022/11/19 12:42:55;;;;;;;5.35;2.55;;;20.80;99.90;;;;;;5016696;28;20188;-78
2022/11/19 12:45:41;;;;;;;4.73;2.27;;;20.80;99.90;;;;;;5021294;28;20195;-78
2022/11/19 12:48:36;;;;;;;5.22;2.33;;;20.80;99.90;;;;;;5020199;28;20349;-79
2022/11/19 12:51:34;;;;;;;7.97;2.40;;;20.70;99.90;;;;;;5027386;28;20184;-78
2022/11/19 12:54:14;;;;;;;6.30;2.45;;;20.70;99.90;;;;;;5051537;28;20200;-79
2022/11/19 12:56:56;;;;;;;4.28;2.38;;;20.60;99.90;;;;;;5055923;28;20187;-79
2022/11/19 13:00:01;;;;;;;5.28;2.20;;;20.50;99.90;;;;;;5021132;28;20198;-79
2022/11/19 13:02:39;;;;;;;4.28;2.17;;;20.50;99.90;;;;;;5053974;28;20246;-78
2022/11/19 13:05:21;;;;;;;5.57;2.58;;;20.40;99.90;;;;;;5019265;28;20207;-78
2022/11/19 13:08:40;;;;;;;7.80;2.50;;;20.40;99.90;;;;;;5009444;28;20707;-79
2022/11/19 13:11:44;;;;;;;6.30;2.47;;;20.40;99.90;;;;;;4984325;28;20196;-78
2022/11/19 13:14:41;;;;;;;10.80;2.60;;;20.30;99.90;;;;;;5025072;28;20222;-78
2022/11/19 13:17:41;;;;;;;3.57;2.37;;;20.20;99.90;;;;;;5020719;28;20235;-78
2022/11/19 13:20:25;;;;;;;5.10;2.80;;;20.20;99.90;;;;;;5029807;28;20197;-78
2022/11/19 13:22:58;;;;;;;7.37;2.70;;;20.10;99.90;;;;;;5028002;28;20192;-79
2022/11/19 13:25:40;;;;;;;4.13;2.70;;;20.10;99.90;;;;;;5029026;28;20188;-78
2022/11/19 13:28:28;;;;;;;3.60;2.30;;;20.10;99.90;;;;;;5009050;28;20215;-78
2022/11/19 13:31:05;;;;;;;4.57;2.70;;;20.00;99.90;;;;;;5028155;28;20199;-78
2022/11/19 13:33:51;;;;;;;6.03;2.73;;;20.00;99.90;;;;;;5033333;28;20215;-78
2022/11/19 13:36:36;;;;;;;9.87;2.90;;;19.90;99.90;;;;;;5024451;28;20196;-78
2022/11/19 13:39:34;;;;;;;5.47;2.70;;;19.90;99.90;;;;;;5003097;28;20567;-78
2022/11/19 13:44:52;;;;;;;5.40;2.70;;;19.80;99.90;;;;;;5024788;28;20175;-78
2022/11/19 13:47:49;;;;;;;5.80;2.78;;;19.80;99.90;;;;;;5024900;28;20207;-78
2022/11/19 13:50:32;;;;;;;7.57;2.80;;;19.70;99.90;;;;;;5019246;28;20214;-78
2022/11/19 13:53:21;;;;;;;5.73;2.67;;;19.60;99.90;;;;;;5027787;28;20187;-78